Time;durP1;ratioP1;P1;durP2;ratioP2;P2;SDS_P1;SDS_P2;PMS_P1;PMS_P2;Temp;Humidity;BMP_temperature;BMP_pressure;BME280_temperature;BME280_humidity;BME280_pressure;Samples;Min_cycle;Max_cycle;Signal;HPM_P1;HPM_P2
2021/04/09 00:00:41;;;;;;;14.73;11.10;;;4.80;86.70;;;;;;5034526;28;20496;-83
2021/04/09 00:03:07;;;;;;;16.05;10.82;;;4.80;86.90;;;;;;5034393;28;20036;-83
2021/04/09 00:05:32;;;;;;;15.25;10.48;;;4.80;87.00;;;;;;5020203;28;20026;-82
2021/04/09 00:07:58;;;;;;;15.43;11.50;;;4.80;87.10;;;;;;5048489;28;20021;-83
2021/04/09 00:10:26;;;;;;;17.95;11.23;;;4.70;87.20;;;;;;5045951;28;20025;-83
2021/04/09 00:12:52;;;;;;;17.50;11.45;;;4.70;87.30;;;;;;5033127;28;20489;-83
2021/04/09 00:15:18;;;;;;;15.88;11.07;;;4.70;87.40;;;;;;5032671;28;20076;-83
2021/04/09 00:17:44;;;;;;;16.35;10.48;;;4.70;87.50;;;;;;5033033;28;20064;-83
2021/04/09 00:20:19;;;;;;;18.20;12.18;;;4.70;87.50;;;;;;5034294;28;20121;-83
2021/04/09 00:22:45;;;;;;;18.77;11.68;;;4.70;87.50;;;;;;5047715;28;20025;-83
2021/04/09 00:25:12;;;;;;;20.02;12.80;;;4.70;87.50;;;;;;5034138;28;20017;-83
2021/04/09 00:27:38;;;;;;;15.35;11.18;;;4.70;87.40;;;;;;5034149;28;20029;-83
2021/04/09 00:30:05;;;;;;;17.60;11.68;;;4.70;87.30;;;;;;5033876;28;20026;-83
2021/04/09 00:32:31;;;;;;;16.85;11.70;;;4.70;87.30;;;;;;5033885;28;20025;-83
2021/04/09 00:34:56;;;;;;;19.42;12.40;;;4.80;87.30;;;;;;5029884;28;20083;-82
2021/04/09 00:37:22;;;;;;;16.75;12.00;;;4.80;87.20;;;;;;5033802;28;20388;-83
2021/04/09 00:39:47;;;;;;;18.23;12.10;;;4.80;87.20;;;;;;5032771;28;20122;-83
2021/04/09 00:42:20;;;;;;;20.67;12.57;;;4.80;87.10;;;;;;5033333;28;20235;-82
2021/04/09 00:44:46;;;;;;;21.17;13.40;;;4.80;87.00;;;;;;5032334;28;20043;-83
2021/04/09 00:47:12;;;;;;;18.67;12.25;;;4.70;87.00;;;;;;5033746;28;20592;-83
2021/04/09 00:49:39;;;;;;;18.02;12.20;;;4.80;87.10;;;;;;5033604;28;20025;-83
2021/04/09 00:52:05;;;;;;;19.85;12.45;;;4.80;87.10;;;;;;5032418;28;20091;-83
2021/04/09 00:54:32;;;;;;;17.92;11.98;;;4.70;87.30;;;;;;5033482;28;20026;-83
2021/04/09 00:56:58;;;;;;;16.25;11.02;;;4.70;87.40;;;;;;5029394;28;20022;-83
2021/04/09 00:59:25;;;;;;;20.33;12.77;;;4.70;87.60;;;;;;5033536;28;20108;-83
2021/04/09 01:01:51;;;;;;;22.63;14.27;;;4.70;87.70;;;;;;5033167;28;20350;-83
2021/04/09 01:04:17;;;;;;;17.20;12.48;;;4.70;88.10;;;;;;5033327;28;20018;-83
2021/04/09 01:06:42;;;;;;;18.63;12.98;;;4.60;88.20;;;;;;5031864;28;20017;-83
2021/04/09 01:09:08;;;;;;;18.70;12.10;;;4.60;88.30;;;;;;5044909;28;20018;-84
2021/04/09 01:11:33;;;;;;;18.52;11.95;;;4.70;88.40;;;;;;5033177;28;20025;-83
2021/04/09 01:13:59;;;;;;;20.52;12.73;;;4.60;88.40;;;;;;5047669;28;20140;-83
2021/04/09 01:16:40;;;;;;;21.88;13.20;;;4.60;88.50;;;;;;5019324;28;20112;-83
2021/04/09 01:19:27;;;;;;;21.70;12.50;;;4.70;88.50;;;;;;5033143;28;20040;-83
2021/04/09 01:21:59;;;;;;;19.05;12.68;;;4.60;88.80;;;;;;5031727;28;20028;-83
2021/04/09 01:24:35;;;;;;;18.75;13.13;;;4.60;89.10;;;;;;5033009;28;20014;-82
2021/04/09 01:27:45;;;;;;;20.27;13.35;;;4.60;89.30;;;;;;5047244;28;20545;-83
2021/04/09 01:30:23;;;;;;;;;;;4.60;89.40;;;;;;4991795;28;20026;-83
2021/04/09 01:32:51;;;;;;;16.90;12.55;;;4.50;89.70;;;;;;5024609;28;19905;-82
2021/04/09 01:35:17;;;;;;;21.05;12.77;;;4.50;90.00;;;;;;5045554;28;20469;-82
2021/04/09 01:37:52;;;;;;;21.35;13.50;;;4.50;90.00;;;;;;5045944;28;20036;-83
2021/04/09 01:40:30;;;;;;;20.75;12.93;;;4.60;90.00;;;;;;5046427;28;20028;-83
2021/04/09 01:43:01;;;;;;;20.10;13.32;;;4.60;90.00;;;;;;5045360;28;20401;-83
2021/04/09 01:45:28;;;;;;;21.50;13.13;;;4.60;90.00;;;;;;5047307;28;20021;-83
2021/04/09 01:47:54;;;;;;;23.88;13.82;;;4.60;90.30;;;;;;5032432;28;20698;-82
2021/04/09 01:50:20;;;;;;;23.65;14.75;;;4.60;90.20;;;;;;5030107;28;20022;-83
2021/04/09 01:52:47;;;;;;;23.65;13.75;;;4.60;90.20;;;;;;5031237;28;20022;-83
2021/04/09 01:55:15;;;;;;;23.40;14.70;;;4.50;90.20;;;;;;5031107;28;20080;-83
2021/04/09 01:57:44;;;;;;;25.45;14.25;;;4.60;90.30;;;;;;5032711;28;20032;-83
2021/04/09 02:00:19;;;;;;;24.42;15.10;;;4.60;90.30;;;;;;5031117;28;20532;-83
2021/04/09 02:02:47;;;;;;;21.60;14.00;;;4.50;90.30;;;;;;5027404;28;20084;-83
2021/04/09 02:05:18;;;;;;;21.88;14.23;;;4.60;90.40;;;;;;5030894;28;20044;-83
2021/04/09 02:07:45;;;;;;;23.65;14.82;;;4.50;90.40;;;;;;5027129;28;20026;-83
2021/04/09 02:10:13;;;;;;;21.48;14.23;;;4.50;90.50;;;;;;5046329;28;20026;-83
2021/04/09 02:12:43;;;;;;;22.65;14.85;;;4.50;90.50;;;;;;5028243;28;20091;-83
2021/04/09 02:15:11;;;;;;;29.23;14.95;;;4.50;90.60;;;;;;5032206;28;20025;-82
2021/04/09 02:17:37;;;;;;;25.15;15.25;;;4.50;90.60;;;;;;5031376;28;20152;-83
2021/04/09 02:20:12;;;;;;;27.48;15.60;;;4.50;90.80;;;;;;5032228;28;20034;-83
2021/04/09 02:22:39;;;;;;;22.30;14.38;;;4.50;90.80;;;;;;5031931;28;20026;-83
2021/04/09 02:25:05;;;;;;;22.77;14.65;;;4.50;90.90;;;;;;5032099;28;20022;-83
2021/04/09 02:27:31;;;;;;;26.08;16.00;;;4.50;91.00;;;;;;5016528;28;20037;-83
2021/04/09 02:29:57;;;;;;;21.25;14.30;;;4.50;91.30;;;;;;5030745;28;20546;-83
2021/04/09 02:32:23;;;;;;;23.40;14.07;;;4.50;91.00;;;;;;5014611;28;20024;-82
2021/04/09 02:34:49;;;;;;;24.33;14.80;;;4.50;91.00;;;;;;5030643;28;20056;-83
2021/04/09 02:37:16;;;;;;;26.20;15.65;;;4.50;91.20;;;;;;5031853;28;20026;-83
2021/04/09 02:39:45;;;;;;;23.02;13.80;;;4.50;91.20;;;;;;5043850;28;20108;-83
2021/04/09 02:42:12;;;;;;;20.90;13.38;;;4.50;91.30;;;;;;5031770;28;20045;-83
2021/04/09 02:44:37;;;;;;;21.23;13.25;;;4.50;91.30;;;;;;5045171;28;20017;-83
2021/04/09 02:47:17;;;;;;;24.70;13.90;;;4.50;91.60;;;;;;5031948;28;20072;-83
2021/04/09 02:49:45;;;;;;;20.85;13.60;;;4.60;91.20;;;;;;5030499;28;20018;-83
2021/04/09 02:52:25;;;;;;;22.90;12.82;;;4.60;91.30;;;;;;5031929;28;20021;-83
2021/04/09 02:54:52;;;;;;;22.17;14.45;;;4.70;91.20;;;;;;5030487;28;20397;-83
2021/04/09 02:57:21;;;;;;;21.65;13.18;;;4.70;91.20;;;;;;5030317;28;20025;-83
2021/04/09 02:59:49;;;;;;;21.50;14.60;;;4.70;91.20;;;;;;5031431;28;20026;-83
2021/04/09 03:02:15;;;;;;;19.02;13.13;;;4.70;91.20;;;;;;5031506;28;20489;-82
2021/04/09 03:04:41;;;;;;;20.77;13.43;;;4.70;91.20;;;;;;5016721;28;20018;-83
2021/04/09 03:07:08;;;;;;;22.13;12.90;;;4.80;91.20;;;;;;5045133;28;20429;-83
2021/04/09 03:09:34;;;;;;;21.70;12.38;;;4.80;91.10;;;;;;5031613;28;20052;-83
2021/04/09 03:11:59;;;;;;;19.20;12.98;;;4.80;91.10;;;;;;5030379;28;20045;-83
2021/04/09 03:14:26;;;;;;;21.30;13.50;;;4.80;91.00;;;;;;5030340;28;20041;-83
2021/04/09 03:17:03;;;;;;;21.05;12.60;;;4.80;91.00;;;;;;5031577;28;20022;-83
2021/04/09 03:19:29;;;;;;;20.52;11.90;;;4.80;91.00;;;;;;5027880;28;20018;-84
2021/04/09 03:21:55;;;;;;;22.63;11.90;;;4.80;91.10;;;;;;5030238;28;20079;-84
2021/04/09 03:24:20;;;;;;;20.40;12.45;;;4.80;90.90;;;;;;5031443;28;20088;-83
2021/04/09 03:26:45;;;;;;;16.95;11.80;;;4.90;90.90;;;;;;5031540;28;20101;-83
2021/04/09 03:29:11;;;;;;;22.20;14.05;;;4.90;90.90;;;;;;5032168;28;20056;-83
2021/04/09 03:31:36;;;;;;;18.58;11.35;;;4.90;90.90;;;;;;5033868;28;20017;-83
2021/04/09 03:34:03;;;;;;;23.58;11.75;;;4.90;90.90;;;;;;5034906;28;20022;-83
2021/04/09 03:36:29;;;;;;;15.05;11.38;;;4.90;90.70;;;;;;5035096;28;20504;-83
2021/04/09 03:38:54;;;;;;;19.55;12.32;;;5.00;90.70;;;;;;5035088;28;20029;-83
2021/04/09 03:41:20;;;;;;;19.48;12.80;;;5.00;90.60;;;;;;5034808;28;20069;-83
2021/04/09 03:43:46;;;;;;;17.13;12.13;;;5.10;90.10;;;;;;5034854;28;20383;-83
2021/04/09 03:46:11;;;;;;;23.15;11.55;;;5.10;90.00;;;;;;5049207;28;20539;-83
2021/04/09 03:48:37;;;;;;;19.17;11.57;;;5.10;89.70;;;;;;5034800;28;20044;-83
2021/04/09 03:51:04;;;;;;;18.73;12.38;;;5.20;89.50;;;;;;5049994;28;20028;-84
2021/04/09 03:53:29;;;;;;;18.30;11.70;;;5.20;89.30;;;;;;5033575;28;20022;-84
2021/04/09 03:55:55;;;;;;;16.95;11.70;;;5.20;89.20;;;;;;5018910;28;20025;-83
2021/04/09 03:58:20;;;;;;;17.60;11.75;;;5.20;89.30;;;;;;5032987;28;20060;-83
2021/04/09 04:00:46;;;;;;;20.25;11.77;;;5.20;89.20;;;;;;5033425;28;20521;-83
2021/04/09 04:03:11;;;;;;;18.88;12.23;;;5.20;89.00;;;;;;5034603;28;20079;-83
2021/04/09 04:05:37;;;;;;;22.23;12.02;;;5.20;89.10;;;;;;5020658;28;20385;-83
2021/04/09 04:08:03;;;;;;;19.35;12.43;;;5.10;89.10;;;;;;5048211;28;20036;-83
2021/04/09 04:10:28;;;;;;;16.95;10.63;;;5.20;89.40;;;;;;5034335;28;20498;-83
2021/04/09 04:12:54;;;;;;;19.70;11.38;;;5.10;88.80;;;;;;5033184;28;20021;-83
2021/04/09 04:15:19;;;;;;;21.17;11.82;;;5.10;89.00;;;;;;5032963;28;20115;-83
2021/04/09 04:17:45;;;;;;;21.52;12.40;;;5.10;89.20;;;;;;5033089;28;20026;-83
2021/04/09 04:20:11;;;;;;;19.83;11.82;;;5.10;89.00;;;;;;5018869;28;20084;-83
2021/04/09 04:22:37;;;;;;;23.77;12.68;;;5.10;89.10;;;;;;5045602;28;20021;-83
2021/04/09 04:25:04;;;;;;;18.88;10.80;;;5.10;89.30;;;;;;5047986;28;20013;-83
2021/04/09 04:27:30;;;;;;;22.73;13.13;;;5.10;89.40;;;;;;5032654;28;20014;-83
2021/04/09 04:29:56;;;;;;;19.27;12.27;;;5.00;89.40;;;;;;5048720;28;20392;-83
2021/04/09 04:32:21;;;;;;;20.45;11.90;;;5.00;89.30;;;;;;5032726;28;20068;-83
2021/04/09 04:34:47;;;;;;;16.55;11.20;;;5.10;89.40;;;;;;5046536;28;20052;-83
2021/04/09 04:37:12;;;;;;;21.05;11.75;;;5.10;89.20;;;;;;5046913;28;20017;-83
2021/04/09 04:39:38;;;;;;;20.33;11.65;;;5.00;89.30;;;;;;5032100;28;20036;-83
2021/04/09 04:42:03;;;;;;;20.45;12.27;;;5.00;89.60;;;;;;5033450;28;20061;-83
2021/04/09 04:44:29;;;;;;;20.80;12.30;;;5.00;89.40;;;;;;5033799;28;20052;-83
2021/04/09 04:46:55;;;;;;;21.67;11.02;;;5.00;89.30;;;;;;5033734;28;20033;-83
2021/04/09 04:49:20;;;;;;;14.75;10.75;;;5.00;89.30;;;;;;5030971;28;20380;-83
2021/04/09 04:51:46;;;;;;;16.60;11.27;;;5.00;89.50;;;;;;5032330;28;20041;-83
2021/04/09 04:54:11;;;;;;;20.13;11.90;;;5.00;89.70;;;;;;5046671;28;20025;-83
2021/04/09 04:56:37;;;;;;;19.05;11.10;;;5.00;89.80;;;;;;5045006;28;20025;-83
2021/04/09 04:59:02;;;;;;;18.02;11.43;;;5.00;90.00;;;;;;5033306;28;20501;-83
2021/04/09 05:01:28;;;;;;;14.68;10.63;;;5.00;90.00;;;;;;5033617;28;20025;-83
2021/04/09 05:03:53;;;;;;;17.60;10.93;;;5.00;90.00;;;;;;5044770;28;20020;-83
2021/04/09 05:06:19;;;;;;;17.48;11.02;;;5.00;90.10;;;;;;5031861;28;20018;-83
2021/04/09 05:08:44;;;;;;;20.67;10.00;;;5.00;90.00;;;;;;5018698;28;20049;-83
2021/04/09 05:11:10;;;;;;;18.55;10.13;;;5.00;90.00;;;;;;5031976;28;20025;-83
2021/04/09 05:13:35;;;;;;;17.08;10.93;;;5.00;90.10;;;;;;5031819;28;20029;-83
2021/04/09 05:16:01;;;;;;;17.00;10.65;;;5.00;90.10;;;;;;5033449;28;20025;-83
2021/04/09 05:18:26;;;;;;;17.33;10.40;;;5.00;90.10;;;;;;5025192;28;20030;-86
2021/04/09 05:20:52;;;;;;;18.63;11.65;;;5.00;90.30;;;;;;5012096;28;20026;-84
2021/04/09 05:23:17;;;;;;;15.88;10.55;;;5.00;90.30;;;;;;5013176;28;20027;-83
2021/04/09 05:25:43;;;;;;;19.08;10.68;;;5.00;90.30;;;;;;5013560;28;20379;-84
2021/04/09 05:28:08;;;;;;;17.10;10.60;;;5.00;90.30;;;;;;5012493;28;20057;-83
2021/04/09 05:30:34;;;;;;;15.88;10.40;;;5.00;90.30;;;;;;5029897;28;20029;-84
2021/04/09 05:32:59;;;;;;;19.83;11.82;;;5.00;90.50;;;;;;5031386;28;20039;-83
2021/04/09 05:35:25;;;;;;;18.05;9.93;;;5.00;90.50;;;;;;5031580;28;20094;-83
2021/04/09 05:37:52;;;;;;;16.85;10.73;;;5.00;90.60;;;;;;5028596;28;20030;-84
2021/04/09 05:40:17;;;;;;;19.70;11.25;;;5.00;90.60;;;;;;5013698;28;20389;-83
2021/04/09 05:42:44;;;;;;;16.67;11.15;;;4.90;90.80;;;;;;5012346;28;20038;-85
2021/04/09 05:45:10;;;;;;;16.08;10.55;;;4.90;90.90;;;;;;5029063;28;20381;-87
2021/04/09 05:47:35;;;;;;;19.13;11.40;;;4.90;91.10;;;;;;5029351;28;20029;-87
2021/04/09 05:50:01;;;;;;;20.33;11.20;;;4.80;91.30;;;;;;5029111;28;20030;-85
2021/04/09 05:52:27;;;;;;;21.33;10.80;;;4.80;91.40;;;;;;5030498;28;20384;-87
2021/04/09 05:54:52;;;;;;;15.27;10.15;;;4.80;91.40;;;;;;5032301;28;20370;-86
2021/04/09 05:57:18;;;;;;;19.92;11.35;;;4.90;91.60;;;;;;5032221;28;20029;-85
2021/04/09 05:59:44;;;;;;;16.90;10.57;;;5.00;91.50;;;;;;5031976;28;20029;-85
2021/04/09 06:02:09;;;;;;;16.27;11.23;;;5.00;91.40;;;;;;5033485;28;20072;-86
2021/04/09 06:04:35;;;;;;;18.05;11.88;;;5.10;91.50;;;;;;5033146;28;20057;-85
2021/04/09 06:07:00;;;;;;;17.58;11.25;;;5.20;91.40;;;;;;5032006;28;20025;-85
2021/04/09 06:09:26;;;;;;;19.95;11.85;;;5.20;91.20;;;;;;5031364;28;20114;-86
2021/04/09 06:11:51;;;;;;;16.48;10.88;;;5.20;91.20;;;;;;5032038;28;20083;-85
2021/04/09 06:14:20;;;;;;;16.05;10.63;;;5.30;91.10;;;;;;5032928;28;20075;-85
2021/04/09 06:16:46;;;;;;;15.68;11.20;;;5.40;91.20;;;;;;5016534;28;20026;-86
2021/04/09 06:19:11;;;;;;;15.30;10.52;;;5.40;90.90;;;;;;5012326;28;20084;-85
2021/04/09 06:21:37;;;;;;;15.77;10.82;;;5.50;90.80;;;;;;5029936;28;20036;-87
2021/04/09 06:24:03;;;;;;;15.65;10.95;;;5.50;90.90;;;;;;5031818;28;20018;-85
2021/04/09 06:26:29;;;;;;;18.17;11.13;;;5.60;90.80;;;;;;5031992;28;20049;-86
2021/04/09 06:28:55;;;;;;;22.05;11.15;;;5.70;90.90;;;;;;5031971;28;20028;-87
2021/04/09 06:31:21;;;;;;;18.30;10.77;;;5.70;90.70;;;;;;5032566;28;20022;-84
2021/04/09 06:33:47;;;;;;;18.05;10.40;;;5.80;90.60;;;;;;5028987;28;20029;-84
2021/04/09 06:36:12;;;;;;;19.17;11.88;;;5.80;90.70;;;;;;5034799;28;20074;-85
2021/04/09 06:38:38;;;;;;;14.77;9.82;;;5.90;90.50;;;;;;5029054;28;20116;-84
2021/04/09 06:41:03;;;;;;;14.90;9.70;;;5.90;90.30;;;;;;5037186;28;20021;-86
2021/04/09 06:43:29;;;;;;;14.98;10.05;;;6.00;90.40;;;;;;5027647;28;20751;-86
2021/04/09 06:45:55;;;;;;;21.60;11.45;;;6.00;90.80;;;;;;5032531;28;20025;-87
2021/04/09 06:48:20;;;;;;;17.50;10.82;;;6.10;90.40;;;;;;5030105;28;20025;-85
2021/04/09 06:50:46;;;;;;;13.98;9.77;;;6.10;90.30;;;;;;5033001;28;20045;-85
2021/04/09 06:53:13;;;;;;;17.02;10.88;;;6.10;90.40;;;;;;5031473;28;20374;-84
2021/04/09 06:55:42;;;;;;;18.13;11.07;;;6.20;90.20;;;;;;5032660;28;20033;-83
2021/04/09 06:58:12;;;;;;;17.17;9.65;;;6.10;90.20;;;;;;5029363;28;20042;-83
2021/04/09 07:00:38;;;;;;;16.08;10.30;;;6.10;90.10;;;;;;5004355;28;20080;-82
2021/04/09 07:03:07;;;;;;;14.40;9.45;;;6.10;90.20;;;;;;4990117;28;20789;-83
2021/04/09 07:05:32;;;;;;;18.23;10.90;;;6.20;90.30;;;;;;5034366;28;20025;-84
2021/04/09 07:07:59;;;;;;;17.13;11.05;;;6.20;90.30;;;;;;5036347;28;20037;-85
2021/04/09 07:10:25;;;;;;;20.25;10.38;;;6.20;90.20;;;;;;5034916;28;20489;-88
2021/04/09 07:13:10;;;;;;;19.95;10.82;;;6.30;90.10;;;;;;5036349;28;20083;-82
2021/04/09 07:15:46;;;;;;;18.40;10.95;;;6.40;89.40;;;;;;5040987;28;20504;-83
2021/04/09 07:18:16;;;;;;;20.45;10.75;;;6.50;89.90;;;;;;5020074;28;20529;-83
2021/04/09 07:20:43;;;;;;;19.60;10.90;;;6.70;89.20;;;;;;4992572;28;20060;-82
2021/04/09 07:23:11;;;;;;;16.30;9.85;;;6.80;89.00;;;;;;4997458;28;20509;-83
2021/04/09 07:25:45;;;;;;;16.15;10.57;;;6.90;89.40;;;;;;5034332;28;20052;-83
2021/04/09 07:28:11;;;;;;;17.25;9.88;;;6.90;88.00;;;;;;5041209;28;20104;-83
2021/04/09 07:30:37;;;;;;;15.15;9.40;;;6.90;89.00;;;;;;5034292;28;20150;-83
2021/04/09 07:33:08;;;;;;;17.20;9.88;;;6.90;88.20;;;;;;5037713;28;20038;-82
2021/04/09 07:36:09;;;;;;;16.23;10.05;;;6.90;87.70;;;;;;4990878;28;20036;-83
2021/04/09 07:38:35;;;;;;;16.20;9.77;;;7.00;88.90;;;;;;5005071;28;20061;-84
2021/04/09 07:41:06;;;;;;;12.82;9.00;;;7.00;88.90;;;;;;5035293;28;20072;-83
2021/04/09 07:43:45;;;;;;;15.35;9.13;;;7.10;89.10;;;;;;5035074;28;20117;-83
2021/04/09 07:46:21;;;;;;;11.88;8.40;;;7.30;89.50;;;;;;5033751;28;20485;-88
2021/04/09 07:48:49;;;;;;;14.60;9.32;;;7.40;88.70;;;;;;5026731;28;20469;-88
2021/04/09 07:51:19;;;;;;;16.23;8.75;;;7.50;88.20;;;;;;5035870;28;20120;-89
2021/04/09 07:53:46;;;;;;;13.15;8.98;;;7.60;88.00;;;;;;5033872;28;20029;-83
2021/04/09 07:56:16;;;;;;;14.23;9.65;;;7.70;88.50;;;;;;5034238;28;20029;-83
2021/04/09 07:58:43;;;;;;;13.30;9.10;;;7.80;89.90;;;;;;5034038;28;20021;-83
2021/04/09 08:01:22;;;;;;;14.25;9.18;;;7.90;87.60;;;;;;5035345;28;20029;-83
2021/04/09 08:03:47;;;;;;;13.30;8.90;;;8.00;87.10;;;;;;5033649;28;20026;-83
2021/04/09 08:06:20;;;;;;;16.95;8.93;;;8.00;87.50;;;;;;5033725;28;20473;-83
2021/04/09 08:08:48;;;;;;;13.82;7.82;;;8.20;86.60;;;;;;5032401;28;20028;-83
2021/04/09 08:11:20;;;;;;;15.23;8.80;;;8.20;85.70;;;;;;5033523;28;20029;-83
2021/04/09 08:13:56;;;;;;;18.05;8.70;;;8.20;87.20;;;;;;5031176;28;20021;-83
2021/04/09 08:16:35;;;;;;;13.27;9.73;;;8.30;86.50;;;;;;5031803;28;20100;-83
2021/04/09 08:19:10;;;;;;;11.07;8.15;;;8.40;86.50;;;;;;5034705;28;20500;-83
2021/04/09 08:21:51;;;;;;;12.05;8.35;;;8.50;85.30;;;;;;5034319;28;20065;-83
2021/04/09 08:24:18;;;;;;;11.13;7.22;;;8.60;85.90;;;;;;5032005;28;20022;-83
2021/04/09 08:26:44;;;;;;;13.23;8.20;;;8.60;84.80;;;;;;5034659;28;20063;-83
2021/04/09 08:29:12;;;;;;;11.60;7.85;;;8.70;84.20;;;;;;5033165;28;20459;-83
2021/04/09 08:31:39;;;;;;;11.73;8.38;;;8.70;84.30;;;;;;5027756;28;20028;-83
2021/04/09 08:34:07;;;;;;;10.38;7.18;;;8.80;84.90;;;;;;5031708;28;20560;-83
2021/04/09 08:36:34;;;;;;;12.80;7.65;;;8.90;85.80;;;;;;5033193;28;20029;-84
2021/04/09 08:39:01;;;;;;;17.52;8.43;;;8.90;85.00;;;;;;5024734;28;20037;-83
2021/04/09 08:41:28;;;;;;;12.10;8.07;;;8.90;84.00;;;;;;5034035;28;20041;-83
2021/04/09 08:43:54;;;;;;;10.88;7.25;;;9.00;84.30;;;;;;5032889;28;20108;-83
2021/04/09 08:46:20;;;;;;;10.40;6.72;;;8.90;83.90;;;;;;5027252;28;20493;-83
2021/04/09 08:48:47;;;;;;;17.60;8.90;;;8.90;84.20;;;;;;5023915;28;20037;-84
2021/04/09 08:51:14;;;;;;;10.38;7.57;;;9.00;84.90;;;;;;5032624;28;20053;-83
2021/04/09 08:53:40;;;;;;;12.98;7.82;;;9.20;84.50;;;;;;5034108;28;20035;-84
2021/04/09 08:56:06;;;;;;;12.60;7.75;;;9.30;83.00;;;;;;5027102;28;20509;-83
2021/04/09 08:58:46;;;;;;;12.70;8.18;;;9.40;84.00;;;;;;5034051;28;20052;-84
2021/04/09 09:01:13;;;;;;;10.50;7.25;;;9.50;82.80;;;;;;5032287;28;20022;-83
2021/04/09 09:03:39;;;;;;;11.65;7.45;;;9.40;82.60;;;;;;5032599;28;20026;-83
2021/04/09 09:06:06;;;;;;;11.32;7.43;;;9.30;82.90;;;;;;5023678;28;20497;-84
2021/04/09 09:08:44;;;;;;;9.90;7.30;;;9.40;82.80;;;;;;5031338;28;20040;-83
2021/04/09 09:11:11;;;;;;;10.85;7.35;;;9.50;84.50;;;;;;5031154;28;20029;-83
2021/04/09 09:13:42;;;;;;;9.50;6.95;;;9.70;83.60;;;;;;5033705;28;20108;-83
2021/04/09 09:16:19;;;;;;;11.02;7.20;;;10.00;83.60;;;;;;5026870;28;20485;-83
2021/04/09 09:18:48;;;;;;;13.40;7.43;;;10.10;82.30;;;;;;5030165;28;20030;-83
2021/04/09 09:21:14;;;;;;;7.78;6.63;;;10.20;82.30;;;;;;5032197;28;20113;-83
2021/04/09 09:23:56;;;;;;;9.57;6.18;;;10.30;82.00;;;;;;5049241;28;20117;-83
2021/04/09 09:26:34;;;;;;;11.50;7.32;;;10.50;79.10;;;;;;5033736;28;20109;-83
2021/04/09 09:29:26;;;;;;;10.82;6.30;;;10.80;78.90;;;;;;5033795;28;20026;-85
2021/04/09 09:32:04;;;;;;;9.23;6.18;;;11.40;76.50;;;;;;5033884;28;20041;-86
2021/04/09 09:34:32;;;;;;;8.48;5.68;;;11.40;76.50;;;;;;5049187;28;20029;-86
2021/04/09 09:37:08;;;;;;;7.95;6.10;;;11.10;75.90;;;;;;5049351;28;20040;-87
2021/04/09 09:39:51;;;;;;;11.13;6.20;;;11.40;77.60;;;;;;5049359;28;20029;-87
2021/04/09 09:42:20;;;;;;;9.32;7.10;;;11.70;75.00;;;;;;5033363;28;20406;-87
2021/04/09 09:44:56;;;;;;;14.45;6.85;;;11.50;75.10;;;;;;5043001;28;20489;-85
2021/04/09 09:47:32;;;;;;;9.05;6.35;;;11.40;75.40;;;;;;5032572;28;20022;-87
2021/04/09 09:50:04;;;;;;;11.02;6.75;;;11.30;75.70;;;;;;5030755;28;20026;-88
2021/04/09 09:52:59;;;;;;;11.10;6.35;;;11.60;75.30;;;;;;5033238;28;20022;-87
2021/04/09 09:55:44;;;;;;;11.35;6.18;;;12.50;73.90;;;;;;5032238;28;20554;-87
2021/04/09 09:58:12;;;;;;;8.82;6.22;;;12.70;69.60;;;;;;5047780;28;20029;-87
2021/04/09 10:00:38;;;;;;;8.93;5.82;;;12.60;70.00;;;;;;5030978;28;20066;-88
2021/04/09 10:03:25;;;;;;;9.30;5.40;;;12.70;71.10;;;;;;5030661;28;20112;-88
2021/04/09 10:06:10;;;;;;;6.78;5.07;;;13.10;69.80;;;;;;5037261;28;20101;-88
2021/04/09 10:08:37;;;;;;;6.80;4.95;;;14.10;68.30;;;;;;5028460;28;20080;-86
2021/04/09 10:11:21;;;;;;;7.35;5.05;;;14.80;66.30;;;;;;5030138;28;20065;-86
2021/04/09 10:13:49;;;;;;;7.55;5.22;;;15.50;61.10;;;;;;5023722;28;20022;-86
2021/04/09 10:16:22;;;;;;;7.38;4.50;;;16.30;60.30;;;;;;5030205;28;20099;-86
2021/04/09 10:18:53;;;;;;;7.43;4.63;;;16.60;57.80;;;;;;5028907;28;20481;-89
2021/04/09 10:21:24;;;;;;;6.70;4.60;;;16.80;55.90;;;;;;5029990;28;20381;-86
2021/04/09 10:24:14;;;;;;;6.53;4.50;;;17.40;55.10;;;;;;5044745;28;20021;-87
2021/04/09 10:26:49;;;;;;;4.53;3.63;;;17.80;54.10;;;;;;5028550;28;20477;-87
2021/04/09 10:29:33;;;;;;;7.32;4.47;;;17.80;51.50;;;;;;5030830;28;20036;-90
2021/04/09 10:31:59;;;;;;;8.50;5.40;;;17.90;52.00;;;;;;5032941;28;20366;-88
2021/04/09 10:34:26;;;;;;;8.35;5.35;;;17.80;52.60;;;;;;5046305;28;20091;-89
2021/04/09 10:36:53;;;;;;;7.68;5.03;;;17.60;52.60;;;;;;5029444;28;20021;-90
2021/04/09 10:39:21;;;;;;;7.93;4.50;;;17.40;52.10;;;;;;5034608;28;20484;-90
2021/04/09 10:41:49;;;;;;;5.97;4.50;;;17.20;53.00;;;;;;5036668;28;20178;-89
2021/04/09 10:44:24;;;;;;;6.40;3.95;;;17.00;52.50;;;;;;5035814;28;20032;-92
2021/04/09 10:46:58;;;;;;;8.40;4.95;;;17.00;53.30;;;;;;5048523;28;20017;-92
2021/04/09 10:49:26;;;;;;;5.90;4.45;;;16.80;53.00;;;;;;5037235;28;20049;-90
2021/04/09 10:51:57;;;;;;;7.32;4.28;;;16.30;53.70;;;;;;5048447;28;20057;-90
2021/04/09 10:54:29;;;;;;;5.50;4.05;;;16.40;53.80;;;;;;5036479;28;20090;-91
2021/04/09 10:57:06;;;;;;;4.88;3.80;;;16.80;53.30;;;;;;5038851;28;20469;-90
2021/04/09 10:59:40;;;;;;;5.70;3.83;;;17.40;52.70;;;;;;5031617;28;20060;-86
2021/04/09 11:02:08;;;;;;;8.20;3.55;;;18.10;51.70;;;;;;5030757;28;20026;-89
2021/04/09 11:04:35;;;;;;;6.50;2.70;;;18.10;49.30;;;;;;5045429;28;20021;-88
2021/04/09 11:07:06;;;;;;;5.00;3.65;;;17.80;48.50;;;;;;5040058;28;20049;-89
2021/04/09 11:09:44;;;;;;;5.88;3.17;;;17.90;49.10;;;;;;5035709;28;20025;-88
2021/04/09 11:12:22;;;;;;;5.05;3.40;;;17.90;49.30;;;;;;5042588;28;20071;-90
2021/04/09 11:14:50;;;;;;;5.90;3.13;;;17.80;49.50;;;;;;5036902;28;20029;-91
2021/04/09 11:17:27;;;;;;;3.47;2.38;;;17.70;50.00;;;;;;5047747;28;20033;-88
2021/04/09 11:19:57;;;;;;;3.40;2.40;;;18.00;49.00;;;;;;5037466;28;20040;-89
2021/04/09 11:22:28;;;;;;;4.55;2.45;;;18.30;48.10;;;;;;5035609;28;20017;-89
2021/04/09 11:25:03;;;;;;;4.03;2.33;;;18.60;46.80;;;;;;5036040;28;20100;-88
2021/04/09 11:27:33;;;;;;;6.47;3.67;;;19.00;47.10;;;;;;5051429;28;20108;-88
2021/04/09 11:30:18;;;;;;;6.32;3.65;;;18.90;46.00;;;;;;5049608;28;20473;-86
2021/04/09 11:32:52;;;;;;;3.97;2.42;;;18.60;46.50;;;;;;5038055;28;20027;-88
2021/04/09 11:35:19;;;;;;;6.15;2.85;;;18.40;47.00;;;;;;5033556;28;20017;-88
2021/04/09 11:37:53;;;;;;;3.50;2.10;;;17.80;47.40;;;;;;5034116;28;20099;-87
2021/04/09 11:40:42;;;;;;;4.63;2.20;;;16.60;48.10;;;;;;5036782;28;20061;-87
2021/04/09 11:43:09;;;;;;;7.30;3.08;;;15.60;50.50;;;;;;5048591;28;20042;-86
2021/04/09 11:45:46;;;;;;;3.58;2.30;;;14.90;51.50;;;;;;5036606;28;20025;-86
2021/04/09 11:48:42;;;;;;;3.05;1.80;;;14.90;53.30;;;;;;5037904;28;20021;-86
2021/04/09 11:51:21;;;;;;;3.20;1.23;;;15.10;54.00;;;;;;5027830;28;20053;-86
2021/04/09 11:54:13;;;;;;;2.67;1.30;;;16.00;50.70;;;;;;5046032;28;20022;-86
2021/04/09 11:56:49;;;;;;;2.55;1.73;;;16.90;51.60;;;;;;5032070;28;20026;-85
2021/04/09 11:59:19;;;;;;;2.38;1.42;;;18.00;48.30;;;;;;5034322;28;20108;-88
2021/04/09 12:01:45;;;;;;;2.50;1.33;;;18.90;48.80;;;;;;5029043;28;20057;-87
2021/04/09 12:04:30;;;;;;;2.60;1.55;;;19.20;44.90;;;;;;5034272;28;20030;-87
2021/04/09 12:06:56;;;;;;;2.10;1.05;;;18.30;45.30;;;;;;5034184;28;20029;-88
2021/04/09 12:09:21;;;;;;;2.13;1.23;;;18.60;46.70;;;;;;5032859;28;20476;-87
2021/04/09 12:11:47;;;;;;;2.65;1.10;;;19.20;47.70;;;;;;5033433;28;20022;-87
2021/04/09 12:14:12;;;;;;;1.58;1.10;;;20.10;45.30;;;;;;5047914;28;20115;-88
2021/04/09 12:16:38;;;;;;;2.13;1.63;;;19.70;43.00;;;;;;5034476;28;20033;-88
2021/04/09 12:19:03;;;;;;;4.28;1.50;;;18.80;44.70;;;;;;5034649;28;20444;-87
2021/04/09 12:21:29;;;;;;;2.58;1.23;;;18.40;44.50;;;;;;5034262;28;20026;-86
2021/04/09 12:23:54;;;;;;;3.22;1.40;;;18.20;46.00;;;;;;5027068;28;20025;-87
2021/04/09 12:26:22;;;;;;;2.70;1.30;;;18.10;46.20;;;;;;5046160;28;20024;-87
2021/04/09 12:28:48;;;;;;;2.08;1.27;;;18.50;46.10;;;;;;5034191;28;20132;-87
2021/04/09 12:31:13;;;;;;;2.17;1.10;;;18.00;46.30;;;;;;5032183;28;20104;-87
2021/04/09 12:33:39;;;;;;;3.53;1.70;;;18.50;47.50;;;;;;5024342;28;20221;-87
2021/04/09 12:36:04;;;;;;;3.45;1.00;;;19.10;46.00;;;;;;5043338;28;20034;-88
2021/04/09 12:38:30;;;;;;;3.03;1.30;;;19.40;44.60;;;;;;5032694;28;20033;-89
2021/04/09 12:40:56;;;;;;;3.15;1.30;;;19.60;43.80;;;;;;5032050;28;20056;-88
2021/04/09 12:43:21;;;;;;;2.55;0.90;;;19.70;43.70;;;;;;5026211;28;20042;-87
2021/04/09 12:45:48;;;;;;;2.20;1.55;;;19.70;42.60;;;;;;5030298;28;20065;-86
2021/04/09 12:48:14;;;;;;;2.28;1.65;;;19.80;42.60;;;;;;5022820;28;20022;-88
2021/04/09 12:50:39;;;;;;;2.55;1.42;;;20.00;43.00;;;;;;5031282;28;20048;-88